sensor_id;sensor_type;location;lat;lon;timestamp;pressure;altitude;pressure_sealevel;temperature;humidity
19676;BME280;39539;52.202;9.876;2023-04-23T00:01:02;100032.09;;;15.22;100.00
19676;BME280;39539;52.202;9.876;2023-04-23T00:03:30;100036.06;;;15.20;100.00
19676;BME280;39539;52.202;9.876;2023-04-23T00:05:58;100028.81;;;15.15;100.00
19676;BME280;39539;52.202;9.876;2023-04-23T00:08:28;100033.38;;;15.15;100.00
19676;BME280;39539;52.202;9.876;2023-04-23T00:10:56;100015.88;;;15.07;100.00
19676;BME280;39539;52.202;9.876;2023-04-23T00:13:24;100024.47;;;15.09;100.00
19676;BME280;39539;52.202;9.876;2023-04-23T00:15:50;100020.44;;;15.07;100.00
19676;BME280;39539;52.202;9.876;2023-04-23T00:18:15;100012.09;;;15.03;100.00
19676;BME280;39539;52.202;9.876;2023-04-23T00:20:41;100017.44;;;15.03;100.00
19676;BME280;39539;52.202;9.876;2023-04-23T00:23:07;100022.78;;;15.03;100.00
19676;BME280;39539;52.202;9.876;2023-04-23T00:25:32;100023.88;;;15.02;100.00
19676;BME280;39539;52.202;9.876;2023-04-23T00:27:58;100015.25;;;14.95;100.00
19676;BME280;39539;52.202;9.876;2023-04-23T00:30:23;100012.44;;;14.85;100.00
19676;BME280;39539;52.202;9.876;2023-04-23T00:32:48;100025.88;;;14.90;100.00
19676;BME280;39539;52.202;9.876;2023-04-23T00:35:14;100021.03;;;14.87;100.00
19676;BME280;39539;52.202;9.876;2023-04-23T00:37:39;100014.19;;;14.74;100.00
19676;BME280;39539;52.202;9.876;2023-04-23T00:40:05;100006.59;;;14.66;100.00
19676;BME280;39539;52.202;9.876;2023-04-23T00:42:32;100015.63;;;14.59;100.00
19676;BME280;39539;52.202;9.876;2023-04-23T00:44:58;99995.91;;;14.44;100.00
19676;BME280;39539;52.202;9.876;2023-04-23T00:47:24;100006.53;;;14.60;100.00
19676;BME280;39539;52.202;9.876;2023-04-23T00:49:50;100003.94;;;14.66;100.00
19676;BME280;39539;52.202;9.876;2023-04-23T00:52:17;100011.78;;;14.72;100.00
19676;BME280;39539;52.202;9.876;2023-04-23T00:54:42;100008.78;;;14.69;100.00
19676;BME280;39539;52.202;9.876;2023-04-23T00:57:08;100015.50;;;14.71;100.00
19676;BME280;39539;52.202;9.876;2023-04-23T00:59:34;100014.81;;;14.59;100.00
19676;BME280;39539;52.202;9.876;2023-04-23T01:02:00;100013.06;;;14.48;100.00
19676;BME280;39539;52.202;9.876;2023-04-23T01:04:27;100014.84;;;14.42;100.00
19676;BME280;39539;52.202;9.876;2023-04-23T01:06:55;100006.19;;;14.35;100.00
19676;BME280;39539;52.202;9.876;2023-04-23T01:09:22;100005.31;;;14.29;100.00
19676;BME280;39539;52.202;9.876;2023-04-23T01:11:48;99998.19;;;14.35;100.00
19676;BME280;39539;52.202;9.876;2023-04-23T01:14:16;100008.63;;;14.36;100.00
19676;BME280;39539;52.202;9.876;2023-04-23T01:16:41;100009.44;;;14.37;100.00
19676;BME280;39539;52.202;9.876;2023-04-23T01:19:09;100000.63;;;14.36;100.00
19676;BME280;39539;52.202;9.876;2023-04-23T01:21:36;100001.91;;;14.34;100.00
19676;BME280;39539;52.202;9.876;2023-04-23T01:24:04;100010.56;;;14.41;100.00
19676;BME280;39539;52.202;9.876;2023-04-23T01:26:30;99999.53;;;14.37;100.00
19676;BME280;39539;52.202;9.876;2023-04-23T01:28:56;100000.63;;;14.36;100.00
19676;BME280;39539;52.202;9.876;2023-04-23T01:31:22;100009.69;;;14.35;100.00
19676;BME280;39539;52.202;9.876;2023-04-23T01:33:49;100016.59;;;14.31;100.00
19676;BME280;39539;52.202;9.876;2023-04-23T01:36:15;100000.97;;;14.23;100.00
19676;BME280;39539;52.202;9.876;2023-04-23T01:38:40;100007.47;;;14.27;100.00
19676;BME280;39539;52.202;9.876;2023-04-23T01:41:06;100009.25;;;14.22;100.00
19676;BME280;39539;52.202;9.876;2023-04-23T01:43:32;100008.59;;;14.14;100.00
19676;BME280;39539;52.202;9.876;2023-04-23T01:45:58;100002.88;;;14.06;100.00
19676;BME280;39539;52.202;9.876;2023-04-23T01:48:24;100015.25;;;14.12;100.00
19676;BME280;39539;52.202;9.876;2023-04-23T01:50:50;100014.94;;;14.08;100.00
19676;BME280;39539;52.202;9.876;2023-04-23T01:53:17;100010.91;;;14.06;100.00
19676;BME280;39539;52.202;9.876;2023-04-23T01:55:44;100021.75;;;14.16;100.00
19676;BME280;39539;52.202;9.876;2023-04-23T01:58:11;100025.78;;;14.19;100.00
19676;BME280;39539;52.202;9.876;2023-04-23T02:00:36;100028.94;;;14.15;100.00
19676;BME280;39539;52.202;9.876;2023-04-23T02:03:01;100008.72;;;14.03;100.00
19676;BME280;39539;52.202;9.876;2023-04-23T02:05:28;100029.69;;;14.11;100.00
19676;BME280;39539;52.202;9.876;2023-04-23T02:07:54;100026.03;;;14.17;100.00
19676;BME280;39539;52.202;9.876;2023-04-23T02:10:19;100027.56;;;14.13;100.00
19676;BME280;39539;52.202;9.876;2023-04-23T02:12:45;100032.44;;;14.16;100.00
19676;BME280;39539;52.202;9.876;2023-04-23T02:15:12;100033.91;;;14.07;100.00
19676;BME280;39539;52.202;9.876;2023-04-23T02:17:38;100025.31;;;14.05;100.00
19676;BME280;39539;52.202;9.876;2023-04-23T02:20:08;100024.03;;;13.90;100.00
19676;BME280;39539;52.202;9.876;2023-04-23T02:22:38;100028.09;;;13.93;100.00
19676;BME280;39539;52.202;9.876;2023-04-23T02:25:05;100037.63;;;13.89;100.00
19676;BME280;39539;52.202;9.876;2023-04-23T02:27:31;100033.03;;;13.84;100.00
19676;BME280;39539;52.202;9.876;2023-04-23T02:29:58;100038.94;;;13.86;100.00
19676;BME280;39539;52.202;9.876;2023-04-23T02:32:23;100049.88;;;13.85;100.00
19676;BME280;39539;52.202;9.876;2023-04-23T02:34:48;100051.09;;;13.77;100.00
19676;BME280;39539;52.202;9.876;2023-04-23T02:37:14;100051.81;;;13.73;100.00
19676;BME280;39539;52.202;9.876;2023-04-23T02:39:39;100059.81;;;13.73;100.00
19676;BME280;39539;52.202;9.876;2023-04-23T02:42:05;100055.84;;;13.75;100.00
19676;BME280;39539;52.202;9.876;2023-04-23T02:44:30;100039.59;;;13.60;100.00
19676;BME280;39539;52.202;9.876;2023-04-23T02:46:58;100051.97;;;13.66;100.00
19676;BME280;39539;52.202;9.876;2023-04-23T02:49:23;100054.31;;;13.62;100.00
19676;BME280;39539;52.202;9.876;2023-04-23T02:51:48;100047.81;;;13.58;100.00
19676;BME280;39539;52.202;9.876;2023-04-23T02:54:15;100049.06;;;13.51;100.00
19676;BME280;39539;52.202;9.876;2023-04-23T02:56:41;100036.34;;;13.41;100.00
19676;BME280;39539;52.202;9.876;2023-04-23T02:59:06;100057.56;;;13.47;100.00
19676;BME280;39539;52.202;9.876;2023-04-23T03:01:32;100052.13;;;13.42;100.00
19676;BME280;39539;52.202;9.876;2023-04-23T03:03:58;100054.31;;;13.45;100.00
19676;BME280;39539;52.202;9.876;2023-04-23T03:06:24;100061.84;;;13.48;100.00
19676;BME280;39539;52.202;9.876;2023-04-23T03:08:49;100061.75;;;13.43;100.00
19676;BME280;39539;52.202;9.876;2023-04-23T03:11:15;100044.41;;;13.29;100.00
19676;BME280;39539;52.202;9.876;2023-04-23T03:13:40;100060.09;;;13.25;100.00
19676;BME280;39539;52.202;9.876;2023-04-23T03:16:06;100068.28;;;13.24;100.00
19676;BME280;39539;52.202;9.876;2023-04-23T03:18:32;100063.13;;;13.17;100.00
19676;BME280;39539;52.202;9.876;2023-04-23T03:20:57;100061.97;;;13.13;100.00
19676;BME280;39539;52.202;9.876;2023-04-23T03:23:23;100065.34;;;13.09;100.00
19676;BME280;39539;52.202;9.876;2023-04-23T03:25:48;100058.22;;;12.97;100.00
19676;BME280;39539;52.202;9.876;2023-04-23T03:28:14;100054.47;;;12.98;100.00
19676;BME280;39539;52.202;9.876;2023-04-23T03:30:39;100049.53;;;12.90;100.00
19676;BME280;39539;52.202;9.876;2023-04-23T03:33:06;100061.91;;;12.96;100.00
19676;BME280;39539;52.202;9.876;2023-04-23T03:35:31;100063.66;;;12.91;100.00
19676;BME280;39539;52.202;9.876;2023-04-23T03:37:57;100080.34;;;12.98;100.00
19676;BME280;39539;52.202;9.876;2023-04-23T03:40:22;100074.22;;;12.97;100.00
19676;BME280;39539;52.202;9.876;2023-04-23T03:42:48;100080.03;;;12.94;100.00
19676;BME280;39539;52.202;9.876;2023-04-23T03:45:14;100084.69;;;12.87;100.00
19676;BME280;39539;52.202;9.876;2023-04-23T03:47:41;100070.78;;;12.85;100.00
19676;BME280;39539;52.202;9.876;2023-04-23T03:50:07;100082.13;;;12.92;100.00
19676;BME280;39539;52.202;9.876;2023-04-23T03:52:33;100086.78;;;12.85;100.00
19676;BME280;39539;52.202;9.876;2023-04-23T03:54:59;100081.19;;;12.87;100.00
19676;BME280;39539;52.202;9.876;2023-04-23T03:57:24;100092.69;;;12.87;100.00
19676;BME280;39539;52.202;9.876;2023-04-23T03:59:49;100085.47;;;12.88;100.00
19676;BME280;39539;52.202;9.876;2023-04-23T04:02:16;100088.41;;;12.86;100.00
19676;BME280;39539;52.202;9.876;2023-04-23T04:04:41;100085.75;;;12.74;100.00
19676;BME280;39539;52.202;9.876;2023-04-23T04:07:10;100084.47;;;12.77;100.00
19676;BME280;39539;52.202;9.876;2023-04-23T04:09:36;100085.06;;;12.67;100.00
19676;BME280;39539;52.202;9.876;2023-04-23T04:12:02;100092.38;;;12.72;100.00
19676;BME280;39539;52.202;9.876;2023-04-23T04:14:30;100076.41;;;12.60;100.00
19676;BME280;39539;52.202;9.876;2023-04-23T04:16:59;100091.56;;;12.59;100.00
19676;BME280;39539;52.202;9.876;2023-04-23T04:19:24;100101.69;;;12.57;100.00
19676;BME280;39539;52.202;9.876;2023-04-23T04:21:49;100111.28;;;12.58;100.00
19676;BME280;39539;52.202;9.876;2023-04-23T04:24:16;100101.56;;;12.52;100.00
19676;BME280;39539;52.202;9.876;2023-04-23T04:26:42;100087.53;;;12.45;100.00
19676;BME280;39539;52.202;9.876;2023-04-23T04:29:08;100109.44;;;12.47;100.00
19676;BME280;39539;52.202;9.876;2023-04-23T04:31:34;100106.19;;;12.45;100.00
19676;BME280;39539;52.202;9.876;2023-04-23T04:34:00;100112.22;;;12.52;100.00
19676;BME280;39539;52.202;9.876;2023-04-23T04:36:27;100111.09;;;12.48;100.00
19676;BME280;39539;52.202;9.876;2023-04-23T04:38:53;100099.84;;;12.46;100.00
19676;BME280;39539;52.202;9.876;2023-04-23T04:41:21;100108.97;;;12.50;100.00
19676;BME280;39539;52.202;9.876;2023-04-23T04:43:46;100112.91;;;12.59;100.00
19676;BME280;39539;52.202;9.876;2023-04-23T04:46:12;100114.31;;;12.50;100.00
19676;BME280;39539;52.202;9.876;2023-04-23T04:48:37;100118.25;;;12.48;100.00
19676;BME280;39539;52.202;9.876;2023-04-23T04:51:03;100134.94;;;12.55;100.00
19676;BME280;39539;52.202;9.876;2023-04-23T04:53:28;100120.91;;;12.59;100.00
19676;BME280;39539;52.202;9.876;2023-04-23T04:55:54;100129.94;;;12.70;100.00
19676;BME280;39539;52.202;9.876;2023-04-23T04:58:19;100115.47;;;12.66;100.00
19676;BME280;39539;52.202;9.876;2023-04-23T05:00:45;100131.56;;;12.71;100.00
19676;BME280;39539;52.202;9.876;2023-04-23T05:03:11;100134.69;;;12.80;100.00
19676;BME280;39539;52.202;9.876;2023-04-23T05:05:36;100142.22;;;12.83;100.00
19676;BME280;39539;52.202;9.876;2023-04-23T05:08:01;100143.50;;;12.80;100.00
19676;BME280;39539;52.202;9.876;2023-04-23T05:10:28;100141.03;;;12.79;100.00
19676;BME280;39539;52.202;9.876;2023-04-23T05:12:55;100138.63;;;12.77;100.00
19676;BME280;39539;52.202;9.876;2023-04-23T05:15:21;100138.28;;;12.74;100.00
19676;BME280;39539;52.202;9.876;2023-04-23T05:17:46;100148.03;;;12.80;100.00
19676;BME280;39539;52.202;9.876;2023-04-23T05:20:12;100137.13;;;12.70;100.00
19676;BME280;39539;52.202;9.876;2023-04-23T05:22:39;100142.31;;;12.76;100.00
19676;BME280;39539;52.202;9.876;2023-04-23T05:25:06;100140.50;;;12.77;100.00
19676;BME280;39539;52.202;9.876;2023-04-23T05:27:33;100131.66;;;12.76;100.00
19676;BME280;39539;52.202;9.876;2023-04-23T05:30:00;100147.44;;;12.78;100.00
19676;BME280;39539;52.202;9.876;2023-04-23T05:32:26;100139.78;;;12.81;100.00
19676;BME280;39539;52.202;9.876;2023-04-23T05:34:51;100153.47;;;12.85;100.00
19676;BME280;39539;52.202;9.876;2023-04-23T05:37:17;100147.56;;;12.83;100.00
19676;BME280;39539;52.202;9.876;2023-04-23T05:39:43;100142.56;;;12.87;100.00
19676;BME280;39539;52.202;9.876;2023-04-23T05:42:08;100148.22;;;12.90;100.00
19676;BME280;39539;52.202;9.876;2023-04-23T05:44:33;100142.56;;;12.87;100.00
19676;BME280;39539;52.202;9.876;2023-04-23T05:46:59;100146.28;;;12.86;100.00
19676;BME280;39539;52.202;9.876;2023-04-23T05:49:24;100162.13;;;12.92;100.00
19676;BME280;39539;52.202;9.876;2023-04-23T05:51:51;100158.06;;;13.01;100.00
19676;BME280;39539;52.202;9.876;2023-04-23T05:54:16;100168.72;;;13.01;100.00
19676;BME280;39539;52.202;9.876;2023-04-23T05:56:42;100162.25;;;12.97;100.00
19676;BME280;39539;52.202;9.876;2023-04-23T05:59:07;100161.53;;;13.02;100.00
19676;BME280;39539;52.202;9.876;2023-04-23T06:01:32;100164.44;;;13.00;100.00
19676;BME280;39539;52.202;9.876;2023-04-23T06:03:58;100177.69;;;12.95;100.00
19676;BME280;39539;52.202;9.876;2023-04-23T06:06:25;100174.41;;;12.93;100.00
19676;BME280;39539;52.202;9.876;2023-04-23T06:08:50;100176.53;;;12.91;100.00
19676;BME280;39539;52.202;9.876;2023-04-23T06:11:15;100170.16;;;12.80;100.00
19676;BME280;39539;52.202;9.876;2023-04-23T06:13:41;100166.31;;;12.76;100.00
19676;BME280;39539;52.202;9.876;2023-04-23T06:16:07;100174.78;;;12.73;100.00
19676;BME280;39539;52.202;9.876;2023-04-23T06:18:33;100172.84;;;12.80;100.00
19676;BME280;39539;52.202;9.876;2023-04-23T06:20:58;100174.69;;;12.80;100.00
19676;BME280;39539;52.202;9.876;2023-04-23T06:23:28;100161.00;;;12.88;100.00
19676;BME280;39539;52.202;9.876;2023-04-23T06:25:54;100172.56;;;13.06;100.00
19676;BME280;39539;52.202;9.876;2023-04-23T06:28:19;100183.06;;;13.24;100.00
19676;BME280;39539;52.202;9.876;2023-04-23T06:30:45;100174.50;;;13.34;100.00
19676;BME280;39539;52.202;9.876;2023-04-23T06:33:11;100161.28;;;13.27;100.00
19676;BME280;39539;52.202;9.876;2023-04-23T06:35:36;100147.72;;;13.17;100.00
19676;BME280;39539;52.202;9.876;2023-04-23T06:38:02;100170.91;;;13.28;100.00
19676;BME280;39539;52.202;9.876;2023-04-23T06:40:27;100155.94;;;13.27;100.00
19676;BME280;39539;52.202;9.876;2023-04-23T06:42:52;100143.28;;;13.22;100.00
19676;BME280;39539;52.202;9.876;2023-04-23T06:45:18;100163.88;;;13.51;100.00
19676;BME280;39539;52.202;9.876;2023-04-23T06:47:44;100149.97;;;13.65;100.00
19676;BME280;39539;52.202;9.876;2023-04-23T06:50:10;100160.84;;;13.92;100.00
19676;BME280;39539;52.202;9.876;2023-04-23T06:52:35;100163.81;;;14.08;100.00
19676;BME280;39539;52.202;9.876;2023-04-23T06:55:01;100165.41;;;14.26;100.00
19676;BME280;39539;52.202;9.876;2023-04-23T06:57:27;100166.06;;;14.50;100.00
19676;BME280;39539;52.202;9.876;2023-04-23T06:59:52;100155.97;;;14.74;100.00
19676;BME280;39539;52.202;9.876;2023-04-23T07:02:18;100146.38;;;14.95;99.21
19676;BME280;39539;52.202;9.876;2023-04-23T07:04:43;100156.31;;;15.21;98.11
19676;BME280;39539;52.202;9.876;2023-04-23T07:07:09;100148.50;;;15.42;94.78
19676;BME280;39539;52.202;9.876;2023-04-23T07:09:34;100147.09;;;15.83;95.40
19676;BME280;39539;52.202;9.876;2023-04-23T07:11:59;100121.91;;;16.22;91.66
19676;BME280;39539;52.202;9.876;2023-04-23T07:14:26;100136.84;;;16.97;88.44
19676;BME280;39539;52.202;9.876;2023-04-23T07:16:51;100121.25;;;18.03;80.62
19676;BME280;39539;52.202;9.876;2023-04-23T07:19:18;100104.00;;;19.10;76.45
19676;BME280;39539;52.202;9.876;2023-04-23T07:21:44;100082.69;;;19.58;71.47
19676;BME280;39539;52.202;9.876;2023-04-23T07:24:09;100085.03;;;20.57;69.70
19676;BME280;39539;52.202;9.876;2023-04-23T07:26:35;100086.13;;;22.08;65.22
19676;BME280;39539;52.202;9.876;2023-04-23T07:29:02;100074.34;;;22.59;62.10
19676;BME280;39539;52.202;9.876;2023-04-23T07:31:27;100055.63;;;22.49;59.18
19676;BME280;39539;52.202;9.876;2023-04-23T07:33:53;100051.31;;;22.48;59.98
19676;BME280;39539;52.202;9.876;2023-04-23T07:36:20;100043.38;;;22.24;60.95
19676;BME280;39539;52.202;9.876;2023-04-23T07:38:47;100033.69;;;21.90;60.20
19676;BME280;39539;52.202;9.876;2023-04-23T07:41:13;100038.00;;;22.05;60.29
19676;BME280;39539;52.202;9.876;2023-04-23T07:43:39;100032.78;;;21.94;60.82
19676;BME280;39539;52.202;9.876;2023-04-23T07:46:06;100021.75;;;22.05;59.46
19676;BME280;39539;52.202;9.876;2023-04-23T07:48:31;100021.47;;;23.48;58.83
19676;BME280;39539;52.202;9.876;2023-04-23T07:50:58;100010.84;;;26.43;49.70
19676;BME280;39539;52.202;9.876;2023-04-23T07:53:23;99988.59;;;29.50;44.33
19676;BME280;39539;52.202;9.876;2023-04-23T07:55:48;99959.53;;;31.84;40.37
19676;BME280;39539;52.202;9.876;2023-04-23T07:58:14;99935.31;;;32.73;37.95
19676;BME280;39539;52.202;9.876;2023-04-23T08:00:39;99903.00;;;30.75;38.33
19676;BME280;39539;52.202;9.876;2023-04-23T08:03:05;99912.88;;;31.64;37.84
19676;BME280;39539;52.202;9.876;2023-04-23T08:05:30;99894.44;;;32.14;37.27
19676;BME280;39539;52.202;9.876;2023-04-23T08:07:55;99881.13;;;30.78;37.89
19676;BME280;39539;52.202;9.876;2023-04-23T08:10:21;99891.91;;;32.02;38.56
19676;BME280;39539;52.202;9.876;2023-04-23T08:12:46;99880.22;;;32.39;37.05
19676;BME280;39539;52.202;9.876;2023-04-23T08:15:12;99869.13;;;31.52;38.58
19676;BME280;39539;52.202;9.876;2023-04-23T08:17:37;99865.94;;;32.30;35.80
19676;BME280;39539;52.202;9.876;2023-04-23T08:20:03;99869.81;;;31.72;37.46
19676;BME280;39539;52.202;9.876;2023-04-23T08:22:31;99864.50;;;30.71;39.49
19676;BME280;39539;52.202;9.876;2023-04-23T08:24:57;99861.81;;;31.37;37.41
19676;BME280;39539;52.202;9.876;2023-04-23T08:27:23;99859.97;;;30.40;38.20
19676;BME280;39539;52.202;9.876;2023-04-23T08:29:48;99860.66;;;31.64;37.61
19676;BME280;39539;52.202;9.876;2023-04-23T08:32:13;99860.56;;;33.08;35.89
19676;BME280;39539;52.202;9.876;2023-04-23T08:34:38;99858.47;;;31.73;35.03
19676;BME280;39539;52.202;9.876;2023-04-23T08:37:04;99872.19;;;32.91;35.58
19676;BME280;39539;52.202;9.876;2023-04-23T08:39:32;99858.13;;;32.65;35.03
19676;BME280;39539;52.202;9.876;2023-04-23T08:42:04;99866.84;;;33.49;34.20
19676;BME280;39539;52.202;9.876;2023-04-23T08:44:35;99866.53;;;34.24;34.78
19676;BME280;39539;52.202;9.876;2023-04-23T08:47:03;99867.38;;;34.32;32.88
19676;BME280;39539;52.202;9.876;2023-04-23T08:49:32;99874.22;;;32.63;33.40
19676;BME280;39539;52.202;9.876;2023-04-23T08:52:12;99869.25;;;32.73;34.06
19676;BME280;39539;52.202;9.876;2023-04-23T08:54:40;99856.47;;;32.57;36.70
19676;BME280;39539;52.202;9.876;2023-04-23T08:57:09;99855.75;;;32.64;34.08
19676;BME280;39539;52.202;9.876;2023-04-23T08:59:35;99855.19;;;32.85;34.58
19676;BME280;39539;52.202;9.876;2023-04-23T09:02:01;99845.81;;;33.86;33.94
19676;BME280;39539;52.202;9.876;2023-04-23T09:04:32;99847.66;;;33.16;34.66
19676;BME280;39539;52.202;9.876;2023-04-23T09:06:59;99849.28;;;32.49;35.57
19676;BME280;39539;52.202;9.876;2023-04-23T09:09:28;99847.88;;;33.44;34.04
19676;BME280;39539;52.202;9.876;2023-04-23T09:11:57;99849.09;;;33.02;33.17
19676;BME280;39539;52.202;9.876;2023-04-23T09:14:23;99840.59;;;34.43;32.15
19676;BME280;39539;52.202;9.876;2023-04-23T09:16:50;99847.66;;;34.33;32.41
19676;BME280;39539;52.202;9.876;2023-04-23T09:19:16;99846.03;;;34.18;31.53
19676;BME280;39539;52.202;9.876;2023-04-23T09:21:43;99849.06;;;33.43;31.20
19676;BME280;39539;52.202;9.876;2023-04-23T09:24:11;99834.25;;;33.59;30.86
19676;BME280;39539;52.202;9.876;2023-04-23T09:26:43;99828.28;;;34.19;31.24
19676;BME280;39539;52.202;9.876;2023-04-23T09:29:15;99834.69;;;34.37;30.69
19676;BME280;39539;52.202;9.876;2023-04-23T09:31:51;99842.50;;;34.28;31.32
19676;BME280;39539;52.202;9.876;2023-04-23T09:34:19;99830.91;;;35.24;30.50
19676;BME280;39539;52.202;9.876;2023-04-23T09:36:46;99832.81;;;34.63;30.78
19676;BME280;39539;52.202;9.876;2023-04-23T09:39:14;99837.53;;;34.73;30.38
19676;BME280;39539;52.202;9.876;2023-04-23T09:41:39;99825.63;;;34.40;29.64
19676;BME280;39539;52.202;9.876;2023-04-23T09:44:05;99835.13;;;33.25;32.20
19676;BME280;39539;52.202;9.876;2023-04-23T09:46:37;99845.50;;;33.98;31.61
19676;BME280;39539;52.202;9.876;2023-04-23T09:49:04;99837.97;;;34.82;30.26
19676;BME280;39539;52.202;9.876;2023-04-23T09:51:45;99836.84;;;35.41;29.67
19676;BME280;39539;52.202;9.876;2023-04-23T09:54:20;99832.13;;;35.59;30.41
19676;BME280;39539;52.202;9.876;2023-04-23T09:56:52;99839.50;;;33.85;31.87
19676;BME280;39539;52.202;9.876;2023-04-23T09:59:26;99842.06;;;34.19;32.33
19676;BME280;39539;52.202;9.876;2023-04-23T10:01:52;99835.94;;;34.65;31.07
19676;BME280;39539;52.202;9.876;2023-04-23T10:04:19;99831.13;;;33.64;31.10
19676;BME280;39539;52.202;9.876;2023-04-23T10:06:47;99835.56;;;33.31;32.00
19676;BME280;39539;52.202;9.876;2023-04-23T10:09:13;99833.81;;;33.08;32.95
19676;BME280;39539;52.202;9.876;2023-04-23T10:11:41;99830.09;;;31.66;32.93
19676;BME280;39539;52.202;9.876;2023-04-23T10:14:07;99820.09;;;31.81;34.93
19676;BME280;39539;52.202;9.876;2023-04-23T10:16:33;99823.06;;;31.68;35.03
19676;BME280;39539;52.202;9.876;2023-04-23T10:19:00;99828.44;;;31.61;35.20
19676;BME280;39539;52.202;9.876;2023-04-23T10:21:29;99825.19;;;31.06;34.30
19676;BME280;39539;52.202;9.876;2023-04-23T10:23:57;99834.03;;;30.37;35.41
19676;BME280;39539;52.202;9.876;2023-04-23T10:26:26;99829.13;;;29.25;37.94
19676;BME280;39539;52.202;9.876;2023-04-23T10:28:53;99843.00;;;29.64;37.32
19676;BME280;39539;52.202;9.876;2023-04-23T10:31:21;99827.25;;;27.76;40.44
19676;BME280;39539;52.202;9.876;2023-04-23T10:33:47;99825.75;;;26.72;40.98
19676;BME280;39539;52.202;9.876;2023-04-23T10:36:14;99830.56;;;25.05;43.87
19676;BME280;39539;52.202;9.876;2023-04-23T10:38:41;99823.47;;;24.66;44.53
19676;BME280;39539;52.202;9.876;2023-04-23T10:41:07;99838.22;;;23.82;46.51
19676;BME280;39539;52.202;9.876;2023-04-23T10:43:34;99833.00;;;23.54;45.97
19676;BME280;39539;52.202;9.876;2023-04-23T10:46:00;99860.13;;;23.94;49.29
19676;BME280;39539;52.202;9.876;2023-04-23T10:48:28;99848.63;;;23.88;47.85
19676;BME280;39539;52.202;9.876;2023-04-23T10:50:57;99849.47;;;23.26;46.74
19676;BME280;39539;52.202;9.876;2023-04-23T10:53:24;99854.16;;;23.35;48.96
19676;BME280;39539;52.202;9.876;2023-04-23T10:56:04;99856.03;;;23.65;51.10
19676;BME280;39539;52.202;9.876;2023-04-23T10:58:49;99846.47;;;23.28;49.38
19676;BME280;39539;52.202;9.876;2023-04-23T11:01:16;99857.56;;;23.18;50.14
19676;BME280;39539;52.202;9.876;2023-04-23T11:03:43;99848.66;;;22.95;51.29
19676;BME280;39539;52.202;9.876;2023-04-23T11:06:12;99850.75;;;22.75;53.92
19676;BME280;39539;52.202;9.876;2023-04-23T11:08:52;99859.38;;;22.77;49.45
19676;BME280;39539;52.202;9.876;2023-04-23T11:11:24;99854.81;;;22.64;51.35
19676;BME280;39539;52.202;9.876;2023-04-23T11:14:10;99856.03;;;22.58;53.42
19676;BME280;39539;52.202;9.876;2023-04-23T11:16:35;99864.41;;;22.70;51.85
19676;BME280;39539;52.202;9.876;2023-04-23T11:19:10;99853.28;;;22.72;48.56
19676;BME280;39539;52.202;9.876;2023-04-23T11:24:34;99832.38;;;22.50;52.70
19676;BME280;39539;52.202;9.876;2023-04-23T11:27:08;99843.84;;;22.47;54.45
19676;BME280;39539;52.202;9.876;2023-04-23T11:29:35;99847.16;;;22.44;53.13
19676;BME280;39539;52.202;9.876;2023-04-23T11:32:04;99849.50;;;22.81;51.61
19676;BME280;39539;52.202;9.876;2023-04-23T11:34:44;99839.84;;;22.44;52.19
19676;BME280;39539;52.202;9.876;2023-04-23T11:37:13;99842.75;;;22.48;50.73
19676;BME280;39539;52.202;9.876;2023-04-23T11:39:39;99848.72;;;22.81;50.86
19676;BME280;39539;52.202;9.876;2023-04-23T11:42:12;99849.22;;;22.60;53.58
19676;BME280;39539;52.202;9.876;2023-04-23T11:44:43;99843.34;;;22.67;51.16
19676;BME280;39539;52.202;9.876;2023-04-23T11:47:10;99850.50;;;22.85;51.14
19676;BME280;39539;52.202;9.876;2023-04-23T11:49:37;99845.31;;;22.53;53.45
19676;BME280;39539;52.202;9.876;2023-04-23T11:52:03;99849.59;;;22.45;50.10
19676;BME280;39539;52.202;9.876;2023-04-23T11:54:29;99847.41;;;22.56;51.85
19676;BME280;39539;52.202;9.876;2023-04-23T11:56:55;99838.53;;;22.41;51.51
19676;BME280;39539;52.202;9.876;2023-04-23T11:59:22;99848.78;;;22.67;49.81
19676;BME280;39539;52.202;9.876;2023-04-23T12:01:50;99844.56;;;22.38;52.60
19676;BME280;39539;52.202;9.876;2023-04-23T12:04:20;99820.66;;;22.18;50.85
19676;BME280;39539;52.202;9.876;2023-04-23T12:06:47;99844.41;;;22.57;50.30
19676;BME280;39539;52.202;9.876;2023-04-23T12:09:14;99839.97;;;22.84;49.93
19676;BME280;39539;52.202;9.876;2023-04-23T12:11:41;99837.81;;;22.95;49.57
19676;BME280;39539;52.202;9.876;2023-04-23T12:14:07;99834.69;;;22.79;48.72
19676;BME280;39539;52.202;9.876;2023-04-23T12:16:43;99830.19;;;22.52;46.65
19676;BME280;39539;52.202;9.876;2023-04-23T12:19:12;99830.44;;;21.91;51.17
19676;BME280;39539;52.202;9.876;2023-04-23T12:21:59;99827.47;;;20.72;53.66
19676;BME280;39539;52.202;9.876;2023-04-23T12:24:26;99833.13;;;19.95;56.11
19676;BME280;39539;52.202;9.876;2023-04-23T12:26:54;99843.63;;;19.78;56.52
19676;BME280;39539;52.202;9.876;2023-04-23T12:29:21;99842.28;;;19.51;55.39
19676;BME280;39539;52.202;9.876;2023-04-23T12:31:48;99831.06;;;19.39;56.55
19676;BME280;39539;52.202;9.876;2023-04-23T12:34:14;99828.56;;;19.23;57.92
19676;BME280;39539;52.202;9.876;2023-04-23T12:36:54;99832.63;;;19.21;55.83
19676;BME280;39539;52.202;9.876;2023-04-23T12:41:46;99844.63;;;19.34;55.24
19676;BME280;39539;52.202;9.876;2023-04-23T12:44:11;99849.78;;;19.54;55.96
19676;BME280;39539;52.202;9.876;2023-04-23T12:46:36;99849.84;;;19.97;55.20
19676;BME280;39539;52.202;9.876;2023-04-23T12:49:02;99856.66;;;20.32;54.34
19676;BME280;39539;52.202;9.876;2023-04-23T12:51:27;99853.59;;;20.77;51.74